Arvada, Colorado
Current Conditions -  °F | °C
As of 2:15 AM on Friday 28 Nov 2014 (Local Time) from KBJC Reporting Station
Clear Clear  
Wind Chill: 10°   Ceiling: Unl
Heat Index: 10°   Visibility: 10mi
Dew Point: -8°   Wind: 3mph
Humidity: 28%   Direction: 240°WSW
Pressure: 30.04"   Gusts: NA
Location:  39.8°N, 105.08°W
Report Text: KBJC 280915Z AUTO 24003KT 10SM CLR 10/M08 A3004 RMK AO2
Loading
Personal Weather Stations






























Interactive Weather Map New forecast layout! Learn more

10-Day Weather Forecast

Advertisements
Track Severe Weather on mobile